sensor_id;sensor_type;location;lat;lon;timestamp;temperature;humidity
66740;DHT22;53653;52.188;8.602;2022-12-29T00:01:36;10.63;85.05
66740;DHT22;53653;52.188;8.602;2022-12-29T00:04:04;10.71;84.75
66740;DHT22;53653;52.188;8.602;2022-12-29T00:06:30;10.66;84.87
66740;DHT22;53653;52.188;8.602;2022-12-29T00:08:56;10.66;85.09
66740;DHT22;53653;52.188;8.602;2022-12-29T00:11:23;10.60;85.31
66740;DHT22;53653;52.188;8.602;2022-12-29T00:13:50;10.71;84.95
66740;DHT22;53653;52.188;8.602;2022-12-29T00:16:35;10.74;84.81
66740;DHT22;53653;52.188;8.602;2022-12-29T00:19:02;10.68;84.99
66740;DHT22;53653;52.188;8.602;2022-12-29T00:21:30;10.77;84.81
66740;DHT22;53653;52.188;8.602;2022-12-29T00:24:17;10.68;85.23
66740;DHT22;53653;52.188;8.602;2022-12-29T00:27:08;10.57;85.78
66740;DHT22;53653;52.188;8.602;2022-12-29T00:29:53;10.60;85.76
66740;DHT22;53653;52.188;8.602;2022-12-29T00:32:38;10.59;85.75
66740;DHT22;53653;52.188;8.602;2022-12-29T00:35:31;10.53;86.25
66740;DHT22;53653;52.188;8.602;2022-12-29T00:38:02;10.57;85.92
66740;DHT22;53653;52.188;8.602;2022-12-29T00:40:48;10.61;85.86
66740;DHT22;53653;52.188;8.602;2022-12-29T00:43:32;10.52;86.24
66740;DHT22;53653;52.188;8.602;2022-12-29T00:46:16;10.56;86.13
66740;DHT22;53653;52.188;8.602;2022-12-29T00:48:42;10.68;85.52
66740;DHT22;53653;52.188;8.602;2022-12-29T00:51:26;10.68;85.71
66740;DHT22;53653;52.188;8.602;2022-12-29T00:53:53;10.59;86.13
66740;DHT22;53653;52.188;8.602;2022-12-29T00:56:19;10.59;86.14
66740;DHT22;53653;52.188;8.602;2022-12-29T00:58:44;10.73;85.59
66740;DHT22;53653;52.188;8.602;2022-12-29T01:01:11;10.57;86.19
66740;DHT22;53653;52.188;8.602;2022-12-29T01:03:38;10.57;86.31
66740;DHT22;53653;52.188;8.602;2022-12-29T01:06:06;10.67;85.94
66740;DHT22;53653;52.188;8.602;2022-12-29T01:08:33;10.68;85.66
66740;DHT22;53653;52.188;8.602;2022-12-29T01:13:28;10.61;86.05
66740;DHT22;53653;52.188;8.602;2022-12-29T01:15:54;10.63;86.13
66740;DHT22;53653;52.188;8.602;2022-12-29T01:18:21;10.59;86.16
66740;DHT22;53653;52.188;8.602;2022-12-29T01:20:48;10.68;85.76
66740;DHT22;53653;52.188;8.602;2022-12-29T01:23:13;10.68;85.78
66740;DHT22;53653;52.188;8.602;2022-12-29T01:25:39;10.59;86.28
66740;DHT22;53653;52.188;8.602;2022-12-29T01:28:05;10.84;85.21
66740;DHT22;53653;52.188;8.602;2022-12-29T01:30:34;10.74;85.55
66740;DHT22;53653;52.188;8.602;2022-12-29T01:33:00;10.80;85.39
66740;DHT22;53653;52.188;8.602;2022-12-29T01:35:26;10.76;85.42
66740;DHT22;53653;52.188;8.602;2022-12-29T01:37:52;10.78;85.47
66740;DHT22;53653;52.188;8.602;2022-12-29T01:40:17;10.74;85.80
66740;DHT22;53653;52.188;8.602;2022-12-29T01:42:43;10.68;86.72
66740;DHT22;53653;52.188;8.602;2022-12-29T01:45:13;10.60;88.41
66740;DHT22;53653;52.188;8.602;2022-12-29T01:47:52;10.48;89.65
66740;DHT22;53653;52.188;8.602;2022-12-29T01:50:39;10.43;90.40
66740;DHT22;53653;52.188;8.602;2022-12-29T01:53:13;10.38;90.45
66740;DHT22;53653;52.188;8.602;2022-12-29T01:55:48;10.35;90.54
66740;DHT22;53653;52.188;8.602;2022-12-29T01:58:17;10.23;91.07
66740;DHT22;53653;52.188;8.602;2022-12-29T02:00:45;10.15;91.38
66740;DHT22;53653;52.188;8.602;2022-12-29T02:03:13;10.11;91.64
66740;DHT22;53653;52.188;8.602;2022-12-29T02:05:59;10.12;91.30
66740;DHT22;53653;52.188;8.602;2022-12-29T02:08:30;10.08;91.36
66740;DHT22;53653;52.188;8.602;2022-12-29T02:10:59;10.11;91.24
66740;DHT22;53653;52.188;8.602;2022-12-29T02:13:26;10.13;90.91
66740;DHT22;53653;52.188;8.602;2022-12-29T02:24:51;10.48;90.71
66740;DHT22;53653;52.188;8.602;2022-12-29T02:32:48;10.26;92.87
66740;DHT22;53653;52.188;8.602;2022-12-29T02:35:25;10.22;92.93
66740;DHT22;53653;52.188;8.602;2022-12-29T02:38:00;10.23;92.76
66740;DHT22;53653;52.188;8.602;2022-12-29T02:43:23;10.28;92.28
66740;DHT22;53653;52.188;8.602;2022-12-29T02:49:12;10.35;91.67
66740;DHT22;53653;52.188;8.602;2022-12-29T02:51:47;10.55;90.48
66740;DHT22;53653;52.188;8.602;2022-12-29T02:54:18;10.63;89.77
66740;DHT22;53653;52.188;8.602;2022-12-29T02:59:38;10.67;89.93
66740;DHT22;53653;52.188;8.602;2022-12-29T03:08:05;10.84;88.92
66740;DHT22;53653;52.188;8.602;2022-12-29T03:13:49;10.81;88.82
66740;DHT22;53653;52.188;8.602;2022-12-29T03:19:15;11.00;87.65
66740;DHT22;53653;52.188;8.602;2022-12-29T03:22:10;11.08;86.89
66740;DHT22;53653;52.188;8.602;2022-12-29T03:25:15;11.05;87.06
66740;DHT22;53653;52.188;8.602;2022-12-29T03:28:05;11.04;86.80
66740;DHT22;53653;52.188;8.602;2022-12-29T03:30:39;11.11;86.38
66740;DHT22;53653;52.188;8.602;2022-12-29T03:33:10;11.11;86.31
66740;DHT22;53653;52.188;8.602;2022-12-29T03:35:41;11.10;86.13
66740;DHT22;53653;52.188;8.602;2022-12-29T03:40:52;11.25;85.16
66740;DHT22;53653;52.188;8.602;2022-12-29T03:43:19;11.28;85.15
66740;DHT22;53653;52.188;8.602;2022-12-29T03:45:46;11.21;85.31
66740;DHT22;53653;52.188;8.602;2022-12-29T03:48:13;11.34;84.66
66740;DHT22;53653;52.188;8.602;2022-12-29T03:50:40;11.38;84.36
66740;DHT22;53653;52.188;8.602;2022-12-29T03:53:06;11.39;84.24
66740;DHT22;53653;52.188;8.602;2022-12-29T03:55:32;11.39;84.42
66740;DHT22;53653;52.188;8.602;2022-12-29T03:57:57;11.39;84.50
66740;DHT22;53653;52.188;8.602;2022-12-29T04:00:38;11.43;84.22
66740;DHT22;53653;52.188;8.602;2022-12-29T04:03:04;11.29;84.74
66740;DHT22;53653;52.188;8.602;2022-12-29T04:05:29;11.25;84.79
66740;DHT22;53653;52.188;8.602;2022-12-29T04:07:56;11.40;83.77
66740;DHT22;53653;52.188;8.602;2022-12-29T04:10:23;11.38;83.91
66740;DHT22;53653;52.188;8.602;2022-12-29T04:12:52;11.42;83.29
66740;DHT22;53653;52.188;8.602;2022-12-29T04:15:18;11.49;83.14
66740;DHT22;53653;52.188;8.602;2022-12-29T04:17:44;11.46;83.00
66740;DHT22;53653;52.188;8.602;2022-12-29T04:20:14;11.51;82.85
66740;DHT22;53653;52.188;8.602;2022-12-29T04:23:03;11.58;82.32
66740;DHT22;53653;52.188;8.602;2022-12-29T04:25:33;11.59;82.13
66740;DHT22;53653;52.188;8.602;2022-12-29T04:28:01;11.61;82.04
66740;DHT22;53653;52.188;8.602;2022-12-29T04:30:46;11.56;82.08
66740;DHT22;53653;52.188;8.602;2022-12-29T04:33:16;11.63;81.44
66740;DHT22;53653;52.188;8.602;2022-12-29T04:35:43;11.61;81.62
66740;DHT22;53653;52.188;8.602;2022-12-29T04:38:10;11.67;81.34
66740;DHT22;53653;52.188;8.602;2022-12-29T04:40:38;11.73;80.91
66740;DHT22;53653;52.188;8.602;2022-12-29T04:43:07;11.70;81.51
66740;DHT22;53653;52.188;8.602;2022-12-29T04:45:44;11.67;81.88
66740;DHT22;53653;52.188;8.602;2022-12-29T04:48:39;11.65;81.70
66740;DHT22;53653;52.188;8.602;2022-12-29T04:51:27;11.59;81.91
66740;DHT22;53653;52.188;8.602;2022-12-29T04:53:53;11.62;81.88
66740;DHT22;53653;52.188;8.602;2022-12-29T04:56:18;11.55;83.17
66740;DHT22;53653;52.188;8.602;2022-12-29T04:58:46;11.39;85.00
66740;DHT22;53653;52.188;8.602;2022-12-29T05:01:14;11.11;86.61
66740;DHT22;53653;52.188;8.602;2022-12-29T05:03:43;11.01;87.53
66740;DHT22;53653;52.188;8.602;2022-12-29T05:06:09;10.98;87.53
66740;DHT22;53653;52.188;8.602;2022-12-29T05:08:36;10.98;87.43
66740;DHT22;53653;52.188;8.602;2022-12-29T05:11:04;10.91;87.85
66740;DHT22;53653;52.188;8.602;2022-12-29T05:13:31;10.80;88.38
66740;DHT22;53653;52.188;8.602;2022-12-29T05:15:57;10.78;88.86
66740;DHT22;53653;52.188;8.602;2022-12-29T05:18:23;10.87;88.73
66740;DHT22;53653;52.188;8.602;2022-12-29T05:20:50;10.78;89.08
66740;DHT22;53653;52.188;8.602;2022-12-29T05:23:17;10.67;89.80
66740;DHT22;53653;52.188;8.602;2022-12-29T05:25:45;10.66;90.04
66740;DHT22;53653;52.188;8.602;2022-12-29T05:28:16;10.53;90.72
66740;DHT22;53653;52.188;8.602;2022-12-29T05:30:50;10.46;90.97
66740;DHT22;53653;52.188;8.602;2022-12-29T05:33:18;10.46;90.67
66740;DHT22;53653;52.188;8.602;2022-12-29T05:35:44;10.45;90.40
66740;DHT22;53653;52.188;8.602;2022-12-29T05:38:14;10.50;89.74
66740;DHT22;53653;52.188;8.602;2022-12-29T05:40:41;10.66;88.54
66740;DHT22;53653;52.188;8.602;2022-12-29T05:43:30;10.71;88.38
66740;DHT22;53653;52.188;8.602;2022-12-29T05:46:29;10.80;87.81
66740;DHT22;53653;52.188;8.602;2022-12-29T05:49:16;10.81;87.36
66740;DHT22;53653;52.188;8.602;2022-12-29T05:51:55;10.76;87.57
66740;DHT22;53653;52.188;8.602;2022-12-29T05:54:21;10.70;88.02
66740;DHT22;53653;52.188;8.602;2022-12-29T05:56:47;10.77;86.95
66740;DHT22;53653;52.188;8.602;2022-12-29T05:59:14;10.85;86.66
66740;DHT22;53653;52.188;8.602;2022-12-29T06:01:41;10.94;86.42
66740;DHT22;53653;52.188;8.602;2022-12-29T06:04:07;11.01;85.85
66740;DHT22;53653;52.188;8.602;2022-12-29T06:06:33;11.03;85.88
66740;DHT22;53653;52.188;8.602;2022-12-29T06:08:58;11.11;85.39
66740;DHT22;53653;52.188;8.602;2022-12-29T06:11:24;11.26;84.80
66740;DHT22;53653;52.188;8.602;2022-12-29T06:13:56;11.38;84.75
66740;DHT22;53653;52.188;8.602;2022-12-29T06:16:23;10.74;85.96
66740;DHT22;53653;52.188;8.602;2022-12-29T06:18:52;9.95;87.46
66740;DHT22;53653;52.188;8.602;2022-12-29T06:21:21;9.71;89.05
66740;DHT22;53653;52.188;8.602;2022-12-29T06:23:47;9.64;89.85
66740;DHT22;53653;52.188;8.602;2022-12-29T06:26:12;9.64;90.01
66740;DHT22;53653;52.188;8.602;2022-12-29T06:28:38;9.69;90.29
66740;DHT22;53653;52.188;8.602;2022-12-29T06:31:04;9.64;90.33
66740;DHT22;53653;52.188;8.602;2022-12-29T06:33:30;9.65;90.68
66740;DHT22;53653;52.188;8.602;2022-12-29T06:35:56;9.71;91.02
66740;DHT22;53653;52.188;8.602;2022-12-29T06:38:21;9.65;91.15
66740;DHT22;53653;52.188;8.602;2022-12-29T06:40:47;9.64;91.50
66740;DHT22;53653;52.188;8.602;2022-12-29T06:43:18;9.61;91.90
66740;DHT22;53653;52.188;8.602;2022-12-29T06:46:16;9.58;92.18
66740;DHT22;53653;52.188;8.602;2022-12-29T06:48:41;9.57;92.17
66740;DHT22;53653;52.188;8.602;2022-12-29T06:51:07;9.54;92.19
66740;DHT22;53653;52.188;8.602;2022-12-29T06:53:33;9.57;92.06
66740;DHT22;53653;52.188;8.602;2022-12-29T06:55:59;9.57;91.98
66740;DHT22;53653;52.188;8.602;2022-12-29T06:58:24;9.53;92.05
66740;DHT22;53653;52.188;8.602;2022-12-29T07:00:49;9.50;91.98
66740;DHT22;53653;52.188;8.602;2022-12-29T07:03:15;9.53;91.89
66740;DHT22;53653;52.188;8.602;2022-12-29T07:05:40;9.53;91.72
66740;DHT22;53653;52.188;8.602;2022-12-29T07:08:06;9.55;91.57
66740;DHT22;53653;52.188;8.602;2022-12-29T07:10:31;9.57;91.52
66740;DHT22;53653;52.188;8.602;2022-12-29T07:12:57;9.61;91.37
66740;DHT22;53653;52.188;8.602;2022-12-29T07:15:22;9.62;91.32
66740;DHT22;53653;52.188;8.602;2022-12-29T07:17:48;9.64;91.19
66740;DHT22;53653;52.188;8.602;2022-12-29T07:20:15;9.61;91.25
66740;DHT22;53653;52.188;8.602;2022-12-29T07:22:41;9.61;91.23
66740;DHT22;53653;52.188;8.602;2022-12-29T07:25:07;9.64;91.28
66740;DHT22;53653;52.188;8.602;2022-12-29T07:27:33;9.67;90.95
66740;DHT22;53653;52.188;8.602;2022-12-29T07:29:59;9.67;90.75
66740;DHT22;53653;52.188;8.602;2022-12-29T07:32:24;9.69;90.29
66740;DHT22;53653;52.188;8.602;2022-12-29T07:34:50;9.69;90.13
66740;DHT22;53653;52.188;8.602;2022-12-29T07:37:16;9.71;89.74
66740;DHT22;53653;52.188;8.602;2022-12-29T07:39:41;9.75;88.52
66740;DHT22;53653;52.188;8.602;2022-12-29T07:42:07;9.78;87.52
66740;DHT22;53653;52.188;8.602;2022-12-29T07:44:40;9.80;87.01
66740;DHT22;53653;52.188;8.602;2022-12-29T07:47:18;9.84;86.46
66740;DHT22;53653;52.188;8.602;2022-12-29T07:49:44;9.85;85.76
66740;DHT22;53653;52.188;8.602;2022-12-29T07:52:09;9.84;85.82
66740;DHT22;53653;52.188;8.602;2022-12-29T07:54:35;9.85;85.49
66740;DHT22;53653;52.188;8.602;2022-12-29T07:57:01;9.90;85.07
66740;DHT22;53653;52.188;8.602;2022-12-29T07:59:26;9.87;85.30
66740;DHT22;53653;52.188;8.602;2022-12-29T08:01:52;9.84;85.16
66740;DHT22;53653;52.188;8.602;2022-12-29T08:04:18;9.85;85.39
66740;DHT22;53653;52.188;8.602;2022-12-29T08:06:43;9.81;85.28
66740;DHT22;53653;52.188;8.602;2022-12-29T08:09:10;9.82;85.30
66740;DHT22;53653;52.188;8.602;2022-12-29T08:11:36;9.84;85.14
66740;DHT22;53653;52.188;8.602;2022-12-29T08:14:03;9.87;84.95
66740;DHT22;53653;52.188;8.602;2022-12-29T08:16:29;9.85;84.96
66740;DHT22;53653;52.188;8.602;2022-12-29T08:18:54;9.85;85.00
66740;DHT22;53653;52.188;8.602;2022-12-29T08:21:20;9.88;84.85
66740;DHT22;53653;52.188;8.602;2022-12-29T08:23:47;9.88;84.28
66740;DHT22;53653;52.188;8.602;2022-12-29T08:26:13;9.94;83.56
66740;DHT22;53653;52.188;8.602;2022-12-29T08:28:39;9.97;83.44
66740;DHT22;53653;52.188;8.602;2022-12-29T08:31:05;10.06;82.78
66740;DHT22;53653;52.188;8.602;2022-12-29T08:33:30;10.12;82.19
66740;DHT22;53653;52.188;8.602;2022-12-29T08:36:04;10.16;82.20
66740;DHT22;53653;52.188;8.602;2022-12-29T08:38:30;10.16;82.03
66740;DHT22;53653;52.188;8.602;2022-12-29T08:40:57;10.16;81.56
66740;DHT22;53653;52.188;8.602;2022-12-29T08:43:23;10.19;81.42
66740;DHT22;53653;52.188;8.602;2022-12-29T08:45:49;10.23;81.15
66740;DHT22;53653;52.188;8.602;2022-12-29T08:48:15;10.25;81.03
66740;DHT22;53653;52.188;8.602;2022-12-29T08:50:45;10.22;81.06
66740;DHT22;53653;52.188;8.602;2022-12-29T08:53:11;10.25;81.03
66740;DHT22;53653;52.188;8.602;2022-12-29T08:55:37;10.28;80.76
66740;DHT22;53653;52.188;8.602;2022-12-29T08:58:03;10.35;80.58
66740;DHT22;53653;52.188;8.602;2022-12-29T09:00:29;10.29;80.75
66740;DHT22;53653;52.188;8.602;2022-12-29T09:02:56;10.32;80.57
66740;DHT22;53653;52.188;8.602;2022-12-29T09:05:21;10.26;80.79
66740;DHT22;53653;52.188;8.602;2022-12-29T09:07:47;10.20;80.34
66740;DHT22;53653;52.188;8.602;2022-12-29T09:10:13;10.32;80.14
66740;DHT22;53653;52.188;8.602;2022-12-29T09:12:38;10.33;80.11
66740;DHT22;53653;52.188;8.602;2022-12-29T09:15:05;10.40;79.93
66740;DHT22;53653;52.188;8.602;2022-12-29T09:17:31;10.46;79.42
66740;DHT22;53653;52.188;8.602;2022-12-29T09:20:19;10.60;78.71
66740;DHT22;53653;52.188;8.602;2022-12-29T09:22:45;10.66;77.67
66740;DHT22;53653;52.188;8.602;2022-12-29T09:25:11;10.76;76.77
66740;DHT22;53653;52.188;8.602;2022-12-29T09:27:37;10.83;76.31
66740;DHT22;53653;52.188;8.602;2022-12-29T09:30:05;10.85;75.87
66740;DHT22;53653;52.188;8.602;2022-12-29T09:32:33;10.85;76.40
66740;DHT22;53653;52.188;8.602;2022-12-29T09:34:58;10.88;75.52
66740;DHT22;53653;52.188;8.602;2022-12-29T09:37:24;10.88;75.31
66740;DHT22;53653;52.188;8.602;2022-12-29T09:39:50;10.90;75.51
66740;DHT22;53653;52.188;8.602;2022-12-29T09:47:30;10.94;73.75
66740;DHT22;53653;52.188;8.602;2022-12-29T09:50:03;10.94;74.22
66740;DHT22;53653;52.188;8.602;2022-12-29T09:52:52;11.11;73.66
66740;DHT22;53653;52.188;8.602;2022-12-29T09:55:29;11.22;73.54
66740;DHT22;53653;52.188;8.602;2022-12-29T09:58:02;11.26;73.33
66740;DHT22;53653;52.188;8.602;2022-12-29T10:00:50;11.40;73.23
66740;DHT22;53653;52.188;8.602;2022-12-29T10:03:20;11.47;72.81
66740;DHT22;53653;52.188;8.602;2022-12-29T10:05:52;11.67;72.96
66740;DHT22;53653;52.188;8.602;2022-12-29T10:25:02;11.62;69.38
66740;DHT22;53653;52.188;8.602;2022-12-29T10:27:31;11.80;68.82
66740;DHT22;53653;52.188;8.602;2022-12-29T10:29:59;11.98;68.79
66740;DHT22;53653;52.188;8.602;2022-12-29T10:35:21;11.61;69.07
66740;DHT22;53653;52.188;8.602;2022-12-29T10:38:01;11.73;69.22
66740;DHT22;53653;52.188;8.602;2022-12-29T10:40:59;11.49;70.42
66740;DHT22;53653;52.188;8.602;2022-12-29T10:43:30;11.38;71.20
66740;DHT22;53653;52.188;8.602;2022-12-29T10:46:10;11.28;72.32
66740;DHT22;53653;52.188;8.602;2022-12-29T10:48:37;11.24;72.91
66740;DHT22;53653;52.188;8.602;2022-12-29T10:51:05;11.34;72.84
66740;DHT22;53653;52.188;8.602;2022-12-29T10:53:38;11.40;72.83
66740;DHT22;53653;52.188;8.602;2022-12-29T10:56:14;11.45;72.63
66740;DHT22;53653;52.188;8.602;2022-12-29T10:58:41;11.38;73.19
66740;DHT22;53653;52.188;8.602;2022-12-29T11:01:09;11.35;73.62
66740;DHT22;53653;52.188;8.602;2022-12-29T11:03:46;11.35;72.72
66740;DHT22;53653;52.188;8.602;2022-12-29T11:06:27;11.34;72.08
66740;DHT22;53653;52.188;8.602;2022-12-29T11:08:58;11.35;72.34
66740;DHT22;53653;52.188;8.602;2022-12-29T11:11:32;11.42;71.28
66740;DHT22;53653;52.188;8.602;2022-12-29T11:14:03;11.49;71.06
66740;DHT22;53653;52.188;8.602;2022-12-29T11:16:33;11.53;70.67
66740;DHT22;53653;52.188;8.602;2022-12-29T11:19:00;11.52;71.16
66740;DHT22;53653;52.188;8.602;2022-12-29T11:21:36;11.45;71.48
66740;DHT22;53653;52.188;8.602;2022-12-29T11:26:55;11.39;71.74
66740;DHT22;53653;52.188;8.602;2022-12-29T11:29:29;11.35;72.05
66740;DHT22;53653;52.188;8.602;2022-12-29T11:32:23;11.34;72.49
66740;DHT22;53653;52.188;8.602;2022-12-29T11:34:49;11.39;72.42
66740;DHT22;53653;52.188;8.602;2022-12-29T11:37:29;11.39;72.48
66740;DHT22;53653;52.188;8.602;2022-12-29T11:40:01;11.39;72.57
66740;DHT22;53653;52.188;8.602;2022-12-29T11:42:37;11.39;72.61
66740;DHT22;53653;52.188;8.602;2022-12-29T11:45:06;11.39;72.02
66740;DHT22;53653;52.188;8.602;2022-12-29T11:47:32;11.42;72.01
66740;DHT22;53653;52.188;8.602;2022-12-29T11:50:00;11.46;72.04
66740;DHT22;53653;52.188;8.602;2022-12-29T11:52:30;11.46;72.44
66740;DHT22;53653;52.188;8.602;2022-12-29T11:54:59;11.47;71.94
66740;DHT22;53653;52.188;8.602;2022-12-29T11:57:26;11.42;72.52
66740;DHT22;53653;52.188;8.602;2022-12-29T11:59:53;11.45;71.91
66740;DHT22;53653;52.188;8.602;2022-12-29T12:05:03;11.42;72.36
66740;DHT22;53653;52.188;8.602;2022-12-29T12:07:40;11.46;72.37
66740;DHT22;53653;52.188;8.602;2022-12-29T12:10:12;11.43;72.02
66740;DHT22;53653;52.188;8.602;2022-12-29T12:13:27;11.46;72.07
66740;DHT22;53653;52.188;8.602;2022-12-29T12:15:40;11.43;71.83
66740;DHT22;53653;52.188;8.602;2022-12-29T12:18:18;11.43;72.29
66740;DHT22;53653;52.188;8.602;2022-12-29T12:20:56;11.43;72.09
66740;DHT22;53653;52.188;8.602;2022-12-29T12:26:09;11.42;72.01
66740;DHT22;53653;52.188;8.602;2022-12-29T12:28:49;11.40;71.53
66740;DHT22;53653;52.188;8.602;2022-12-29T12:34:03;11.42;70.89
66740;DHT22;53653;52.188;8.602;2022-12-29T12:56:21;11.28;71.57
66740;DHT22;53653;52.188;8.602;2022-12-29T12:59:10;11.29;71.22
66740;DHT22;53653;52.188;8.602;2022-12-29T13:07:19;11.25;72.15
66740;DHT22;53653;52.188;8.602;2022-12-29T13:12:32;11.19;72.30
66740;DHT22;53653;52.188;8.602;2022-12-29T13:26:44;11.17;72.57
66740;DHT22;53653;52.188;8.602;2022-12-29T13:29:16;11.19;72.96
66740;DHT22;53653;52.188;8.602;2022-12-29T13:37:20;11.18;72.45
66740;DHT22;53653;52.188;8.602;2022-12-29T13:39:52;11.17;72.70
66740;DHT22;53653;52.188;8.602;2022-12-29T13:42:21;11.18;72.55
66740;DHT22;53653;52.188;8.602;2022-12-29T13:44:58;11.15;72.69
66740;DHT22;53653;52.188;8.602;2022-12-29T13:47:38;11.12;72.94
66740;DHT22;53653;52.188;8.602;2022-12-29T13:50:10;11.08;72.71
66740;DHT22;53653;52.188;8.602;2022-12-29T13:52:45;11.14;73.01
66740;DHT22;53653;52.188;8.602;2022-12-29T13:58:01;11.12;72.76
66740;DHT22;53653;52.188;8.602;2022-12-29T14:00:34;11.15;72.81
66740;DHT22;53653;52.188;8.602;2022-12-29T14:05:45;11.10;72.30
66740;DHT22;53653;52.188;8.602;2022-12-29T14:08:16;11.07;72.41
66740;DHT22;53653;52.188;8.602;2022-12-29T14:10:48;11.01;71.77
66740;DHT22;53653;52.188;8.602;2022-12-29T14:13:25;11.03;71.46
66740;DHT22;53653;52.188;8.602;2022-12-29T14:15:55;11.12;71.40
66740;DHT22;53653;52.188;8.602;2022-12-29T14:18:29;11.11;71.80
66740;DHT22;53653;52.188;8.602;2022-12-29T14:21:25;11.03;72.45
66740;DHT22;53653;52.188;8.602;2022-12-29T14:23:54;11.01;73.07
66740;DHT22;53653;52.188;8.602;2022-12-29T14:29:16;10.97;73.70
66740;DHT22;53653;52.188;8.602;2022-12-29T14:32:00;11.00;73.94
66740;DHT22;53653;52.188;8.602;2022-12-29T14:34:28;10.93;74.01
66740;DHT22;53653;52.188;8.602;2022-12-29T14:37:01;10.91;73.54
66740;DHT22;53653;52.188;8.602;2022-12-29T14:39:39;10.90;73.66
66740;DHT22;53653;52.188;8.602;2022-12-29T14:44:45;10.85;73.60
66740;DHT22;53653;52.188;8.602;2022-12-29T14:47:23;10.78;73.89
66740;DHT22;53653;52.188;8.602;2022-12-29T14:49:51;10.81;74.03
66740;DHT22;53653;52.188;8.602;2022-12-29T14:52:21;10.80;74.25
66740;DHT22;53653;52.188;8.602;2022-12-29T14:54:50;10.76;74.46
66740;DHT22;53653;52.188;8.602;2022-12-29T14:57:28;10.73;74.80
66740;DHT22;53653;52.188;8.602;2022-12-29T15:00:05;10.67;75.17
66740;DHT22;53653;52.188;8.602;2022-12-29T15:02:36;10.68;75.33
66740;DHT22;53653;52.188;8.602;2022-12-29T15:05:05;10.64;75.55
66740;DHT22;53653;52.188;8.602;2022-12-29T15:07:32;10.60;75.78
66740;DHT22;53653;52.188;8.602;2022-12-29T15:10:05;10.56;76.03
66740;DHT22;53653;52.188;8.602;2022-12-29T15:12:38;10.52;76.32
66740;DHT22;53653;52.188;8.602;2022-12-29T15:15:23;10.49;76.57
66740;DHT22;53653;52.188;8.602;2022-12-29T15:17:50;10.49;76.52
66740;DHT22;53653;52.188;8.602;2022-12-29T15:22:44;10.39;77.21
66740;DHT22;53653;52.188;8.602;2022-12-29T15:25:16;10.42;77.41
66740;DHT22;53653;52.188;8.602;2022-12-29T15:27:49;10.39;77.72
66740;DHT22;53653;52.188;8.602;2022-12-29T15:30:15;10.32;78.14
66740;DHT22;53653;52.188;8.602;2022-12-29T15:32:46;10.32;78.30
66740;DHT22;53653;52.188;8.602;2022-12-29T15:35:25;10.30;78.30
66740;DHT22;53653;52.188;8.602;2022-12-29T15:37:51;10.25;78.50
66740;DHT22;53653;52.188;8.602;2022-12-29T15:40:34;10.26;78.61
66740;DHT22;53653;52.188;8.602;2022-12-29T15:45:35;10.22;78.32
66740;DHT22;53653;52.188;8.602;2022-12-29T15:48:01;10.18;78.33
66740;DHT22;53653;52.188;8.602;2022-12-29T15:50:32;10.20;78.33
66740;DHT22;53653;52.188;8.602;2022-12-29T15:52:59;10.16;78.15
66740;DHT22;53653;52.188;8.602;2022-12-29T15:55:33;10.19;77.52
66740;DHT22;53653;52.188;8.602;2022-12-29T15:58:02;10.19;77.09
66740;DHT22;53653;52.188;8.602;2022-12-29T16:00:31;10.28;76.65
66740;DHT22;53653;52.188;8.602;2022-12-29T16:03:00;10.32;75.97
66740;DHT22;53653;52.188;8.602;2022-12-29T16:05:37;10.32;75.48
66740;DHT22;53653;52.188;8.602;2022-12-29T16:08:03;10.39;75.04
66740;DHT22;53653;52.188;8.602;2022-12-29T16:10:42;10.39;74.53
66740;DHT22;53653;52.188;8.602;2022-12-29T16:13:38;10.39;74.69
66740;DHT22;53653;52.188;8.602;2022-12-29T16:16:21;10.42;74.42
66740;DHT22;53653;52.188;8.602;2022-12-29T16:18:49;10.38;74.59
66740;DHT22;53653;52.188;8.602;2022-12-29T16:23:52;10.42;74.94
66740;DHT22;53653;52.188;8.602;2022-12-29T16:26:20;10.38;75.70
66740;DHT22;53653;52.188;8.602;2022-12-29T16:28:50;10.42;75.92
66740;DHT22;53653;52.188;8.602;2022-12-29T16:32:18;10.33;76.16
66740;DHT22;53653;52.188;8.602;2022-12-29T16:34:25;10.35;76.63
66740;DHT22;53653;52.188;8.602;2022-12-29T16:36:57;10.30;77.34
66740;DHT22;53653;52.188;8.602;2022-12-29T16:39:33;10.22;78.76
66740;DHT22;53653;52.188;8.602;2022-12-29T16:41:59;10.18;78.78
66740;DHT22;53653;52.188;8.602;2022-12-29T16:44:30;10.11;78.84
66740;DHT22;53653;52.188;8.602;2022-12-29T16:49:27;10.05;78.66
66740;DHT22;53653;52.188;8.602;2022-12-29T16:51:54;10.05;78.88
66740;DHT22;53653;52.188;8.602;2022-12-29T16:54:23;10.03;78.46
66740;DHT22;53653;52.188;8.602;2022-12-29T16:56:50;10.03;79.05
66740;DHT22;53653;52.188;8.602;2022-12-29T17:01:55;9.97;80.21
66740;DHT22;53653;52.188;8.602;2022-12-29T17:04:20;9.77;79.83
66740;DHT22;53653;52.188;8.602;2022-12-29T17:06:46;9.57;80.28
66740;DHT22;53653;52.188;8.602;2022-12-29T17:09:18;9.41;81.32
66740;DHT22;53653;52.188;8.602;2022-12-29T17:11:46;9.24;82.57
66740;DHT22;53653;52.188;8.602;2022-12-29T17:19:59;8.69;86.64
66740;DHT22;53653;52.188;8.602;2022-12-29T17:22:28;8.58;87.43
66740;DHT22;53653;52.188;8.602;2022-12-29T17:24:55;8.58;87.45
66740;DHT22;53653;52.188;8.602;2022-12-29T17:27:27;8.55;87.62
66740;DHT22;53653;52.188;8.602;2022-12-29T17:29:57;8.51;87.62
66740;DHT22;53653;52.188;8.602;2022-12-29T17:32:23;8.47;87.62
66740;DHT22;53653;52.188;8.602;2022-12-29T17:34:49;8.43;87.43
66740;DHT22;53653;52.188;8.602;2022-12-29T17:37:27;8.36;87.61
66740;DHT22;53653;52.188;8.602;2022-12-29T17:39:53;8.45;87.49
66740;DHT22;53653;52.188;8.602;2022-12-29T17:42:19;8.43;87.44
66740;DHT22;53653;52.188;8.602;2022-12-29T17:44:44;8.45;87.19
66740;DHT22;53653;52.188;8.602;2022-12-29T17:47:10;8.51;87.20
66740;DHT22;53653;52.188;8.602;2022-12-29T17:49:36;8.58;86.93
66740;DHT22;53653;52.188;8.602;2022-12-29T17:52:02;8.63;86.65
66740;DHT22;53653;52.188;8.602;2022-12-29T17:54:29;8.63;86.64
66740;DHT22;53653;52.188;8.602;2022-12-29T17:56:55;8.64;86.70
66740;DHT22;53653;52.188;8.602;2022-12-29T17:59:20;8.65;86.38
66740;DHT22;53653;52.188;8.602;2022-12-29T18:01:47;8.68;86.15
66740;DHT22;53653;52.188;8.602;2022-12-29T18:04:16;8.69;86.13
66740;DHT22;53653;52.188;8.602;2022-12-29T18:06:42;8.71;86.15
66740;DHT22;53653;52.188;8.602;2022-12-29T18:09:08;8.72;86.24
66740;DHT22;53653;52.188;8.602;2022-12-29T18:11:37;8.74;86.12
66740;DHT22;53653;52.188;8.602;2022-12-29T18:14:03;8.79;86.01
66740;DHT22;53653;52.188;8.602;2022-12-29T18:16:29;8.78;85.96
66740;DHT22;53653;52.188;8.602;2022-12-29T18:18:55;8.75;85.77
66740;DHT22;53653;52.188;8.602;2022-12-29T18:21:22;8.75;85.94
66740;DHT22;53653;52.188;8.602;2022-12-29T18:23:48;8.84;85.38
66740;DHT22;53653;52.188;8.602;2022-12-29T18:26:19;8.82;84.55
66740;DHT22;53653;52.188;8.602;2022-12-29T18:28:45;8.88;83.97